createdAt,value
2022-11-03T00:02:04.020Z,102048.70
2022-11-03T00:04:31.849Z,102044.26
2022-11-03T00:06:59.447Z,102043.34
2022-11-03T00:09:28.224Z,102045.40
2022-11-03T00:11:55.843Z,102048.70
2022-11-03T00:14:23.623Z,102049.06
2022-11-03T00:16:51.213Z,102055.11
2022-11-03T00:19:18.857Z,102052.73
2022-11-03T00:21:47.210Z,102057.95
2022-11-03T00:24:14.828Z,102059.92
2022-11-03T00:26:42.602Z,102064.04
2022-11-03T00:29:12.649Z,102050.99
2022-11-03T00:31:42.571Z,102050.20
2022-11-03T00:34:11.160Z,102054.42
2022-11-03T00:36:41.457Z,102052.82
2022-11-03T00:39:09.814Z,102039.80
2022-11-03T00:41:38.054Z,102038.99
2022-11-03T00:44:05.891Z,102029.60
2022-11-03T00:46:36.275Z,102026.73
2022-11-03T00:49:07.122Z,102019.44
2022-11-03T00:51:37.870Z,102017.73
2022-11-03T00:54:06.604Z,102002.98
2022-11-03T00:56:37.220Z,101998.90
2022-11-03T00:59:06.673Z,101992.26
2022-11-03T01:01:43.904Z,101981.86
2022-11-03T01:04:32.067Z,101981.77
2022-11-03T01:07:00.944Z,101985.30
2022-11-03T01:09:32.576Z,101983.59
2022-11-03T01:12:08.205Z,101980.52
2022-11-03T01:14:48.024Z,101983.27
2022-11-03T01:17:24.399Z,101975.03
2022-11-03T01:19:52.353Z,101980.85
2022-11-03T01:22:20.885Z,101965.74
2022-11-03T01:24:49.127Z,101967.02
2022-11-03T01:27:19.215Z,101967.93
2022-11-03T01:29:47.161Z,101967.93
2022-11-03T01:32:15.181Z,101970.88
2022-11-03T01:34:42.840Z,101959.79
2022-11-03T01:37:10.524Z,101952.37
2022-11-03T01:39:38.168Z,101954.55
2022-11-03T01:42:06.050Z,101950.99
2022-11-03T01:44:38.659Z,101951.59
2022-11-03T01:47:28.126Z,101955.21
2022-11-03T01:50:03.675Z,101955.80
2022-11-03T01:52:46.020Z,101953.28
2022-11-03T01:55:38.564Z,101948.80
2022-11-03T01:58:21.104Z,101952.59
2022-11-03T02:00:52.183Z,101950.18
2022-11-03T02:03:20.635Z,101944.36
2022-11-03T02:05:51.002Z,101944.26
2022-11-03T02:08:27.077Z,101945.14
2022-11-03T02:10:54.909Z,101949.26
2022-11-03T02:13:25.352Z,101946.05
2022-11-03T02:15:59.782Z,101953.84
2022-11-03T02:18:32.402Z,101947.23
2022-11-03T02:21:25.882Z,101948.37
2022-11-03T02:24:06.229Z,101946.55
2022-11-03T02:26:34.030Z,101939.22
2022-11-03T02:29:01.669Z,101936.02
2022-11-03T02:31:35.104Z,101930.33
2022-11-03T02:34:13.169Z,101928.01
2022-11-03T02:37:12.811Z,101918.33
2022-11-03T02:39:47.977Z,101913.39
2022-11-03T02:42:18.816Z,101913.12
2022-11-03T02:44:51.893Z,101904.46
2022-11-03T02:47:20.983Z,101895.57
2022-11-03T02:49:50.957Z,101903.32
2022-11-03T02:52:39.835Z,101889.84
2022-11-03T02:55:21.731Z,101893.48
2022-11-03T02:58:05.618Z,101890.63
2022-11-03T03:00:40.922Z,101887.42
2022-11-03T03:03:39.927Z,101889.84
2022-11-03T03:06:14.858Z,101882.29
2022-11-03T03:08:48.105Z,101880.82
2022-11-03T03:11:15.885Z,101875.88
2022-11-03T03:13:45.648Z,101875.52
2022-11-03T03:16:21.020Z,101873.56
2022-11-03T03:19:00.741Z,101878.14
2022-11-03T03:21:34.756Z,101862.15
2022-11-03T03:24:08.724Z,101865.45
2022-11-03T03:26:42.549Z,101860.45
2022-11-03T03:29:21.722Z,101861.59
2022-11-03T03:31:56.782Z,101847.07
2022-11-03T03:34:36.019Z,101846.87
2022-11-03T03:37:06.242Z,101850.08
2022-11-03T03:39:38.865Z,101852.73
2022-11-03T03:42:11.400Z,101857.05
2022-11-03T03:44:41.688Z,101852.37
2022-11-03T03:47:19.261Z,101846.65
2022-11-03T03:49:47.101Z,101844.36
2022-11-03T03:52:16.033Z,101849.85
2022-11-03T03:54:43.635Z,101841.52
2022-11-03T03:57:18.294Z,101841.71
2022-11-03T03:59:46.086Z,101845.93
2022-11-03T04:02:14.237Z,101833.41
2022-11-03T04:04:42.235Z,101829.61
2022-11-03T04:07:28.932Z,101826.21
2022-11-03T04:09:56.579Z,101812.80
2022-11-03T04:12:43.063Z,101814.30
2022-11-03T04:15:33.053Z,101811.01
2022-11-03T04:18:19.142Z,101798.64
2022-11-03T04:21:05.249Z,101800.73
2022-11-03T04:23:32.823Z,101806.30
2022-11-03T04:26:00.531Z,101808.95
2022-11-03T04:28:28.472Z,101802.30
2022-11-03T04:31:00.667Z,101796.59
2022-11-03T04:33:30.761Z,101793.74
2022-11-03T04:36:00.708Z,101792.46
2022-11-03T04:38:30.423Z,101792.73
2022-11-03T04:40:59.645Z,101798.45
2022-11-03T04:43:39.684Z,101788.38
2022-11-03T04:46:12.348Z,101787.69
2022-11-03T04:48:40.080Z,101787.36
2022-11-03T04:51:31.076Z,101770.33
2022-11-03T04:54:25.017Z,101772.29
2022-11-03T04:56:52.839Z,101775.03
2022-11-03T04:59:20.483Z,101776.84
2022-11-03T05:01:48.356Z,101766.01
2022-11-03T05:04:18.950Z,101756.27
2022-11-03T05:06:54.280Z,101757.51
2022-11-03T05:09:30.025Z,101747.80
2022-11-03T05:11:57.844Z,101749.04
2022-11-03T05:14:33.302Z,101737.63
2022-11-03T05:17:03.244Z,101732.27
2022-11-03T05:19:37.563Z,101724.61
2022-11-03T05:22:06.513Z,101722.59
2022-11-03T05:24:36.810Z,101716.41
2022-11-03T05:27:04.536Z,101716.41
2022-11-03T05:29:37.598Z,101710.16
2022-11-03T05:32:16.067Z,101694.95
2022-11-03T05:34:46.644Z,101717.81
2022-11-03T05:37:34.689Z,101704.44
2022-11-03T05:40:15.936Z,101697.99
2022-11-03T05:42:47.651Z,101706.56
2022-11-03T05:45:20.961Z,101709.44
2022-11-03T05:47:49.945Z,101699.73
2022-11-03T05:50:22.337Z,101704.30
2022-11-03T05:52:52.466Z,101698.81
2022-11-03T05:55:34.275Z,101685.47
2022-11-03T05:58:20.565Z,101686.71
2022-11-03T06:00:49.003Z,101676.58
2022-11-03T06:03:26.215Z,101678.60
2022-11-03T06:05:54.672Z,101675.30
2022-11-03T06:08:26.586Z,101682.59
2022-11-03T06:10:56.503Z,101694.36
2022-11-03T06:13:35.240Z,101689.00
2022-11-03T06:16:06.912Z,101683.87
2022-11-03T06:18:37.621Z,101684.33
2022-11-03T06:21:20.198Z,101679.06
2022-11-03T06:23:48.076Z,101677.36
2022-11-03T06:26:21.036Z,101682.27
2022-11-03T06:28:50.227Z,101675.20
2022-11-03T06:31:30.514Z,101676.31
2022-11-03T06:34:02.479Z,101676.21
2022-11-03T06:36:33.383Z,101680.20
2022-11-03T06:39:10.683Z,101677.36
2022-11-03T06:41:38.752Z,101683.05
2022-11-03T06:44:27.092Z,101684.33
2022-11-03T06:46:58.079Z,101674.94
2022-11-03T06:49:30.475Z,101682.40
2022-11-03T06:52:03.295Z,101670.98
2022-11-03T06:54:30.914Z,101655.45
2022-11-03T06:56:58.616Z,101662.16
2022-11-03T06:59:26.292Z,101658.85
2022-11-03T07:01:56.718Z,101660.35
2022-11-03T07:04:30.862Z,101664.57
2022-11-03T07:07:03.715Z,101655.65
2022-11-03T07:09:31.317Z,101646.66
2022-11-03T07:12:01.814Z,101660.45
2022-11-03T07:14:32.352Z,101658.06
2022-11-03T07:17:03.490Z,101650.97
2022-11-03T07:19:35.572Z,101640.57
2022-11-03T07:22:11.468Z,101646.13
2022-11-03T07:24:42.461Z,101653.81
2022-11-03T07:27:24.842Z,101638.28
2022-11-03T07:30:12.908Z,101637.66
2022-11-03T07:32:40.656Z,101626.94
2022-11-03T07:35:11.260Z,101635.70
2022-11-03T07:37:38.917Z,101631.13
2022-11-03T07:40:13.172Z,101630.53
2022-11-03T07:42:40.782Z,101632.59
2022-11-03T07:45:28.306Z,101625.59
2022-11-03T07:47:58.247Z,101612.77
2022-11-03T07:50:28.101Z,101608.52
2022-11-03T07:52:55.710Z,101604.77
2022-11-03T07:55:23.324Z,101609.54
2022-11-03T07:57:50.939Z,101609.08
2022-11-03T08:00:22.967Z,101607.35
2022-11-03T08:02:56.822Z,101592.80
2022-11-03T08:05:24.618Z,101594.14
2022-11-03T08:07:52.308Z,101593.84
2022-11-03T08:10:20.039Z,101586.26
2022-11-03T08:12:47.653Z,101585.05
2022-11-03T08:15:16.951Z,101585.38
2022-11-03T08:17:44.667Z,101583.18
2022-11-03T08:20:12.754Z,101582.23
2022-11-03T08:22:46.052Z,101589.43
2022-11-03T08:25:17.400Z,101586.42
2022-11-03T08:27:45.041Z,101580.89
2022-11-03T08:30:13.177Z,101576.61
2022-11-03T08:32:40.807Z,101579.81
2022-11-03T08:35:08.810Z,101576.80
2022-11-03T08:37:36.451Z,101573.80
2022-11-03T08:40:05.574Z,101555.35
2022-11-03T08:42:33.221Z,101544.70
2022-11-03T08:45:00.887Z,101548.69
2022-11-03T08:47:28.506Z,101546.59
2022-11-03T08:49:56.183Z,101533.41
2022-11-03T08:52:23.852Z,101532.63
2022-11-03T08:54:51.530Z,101531.65
2022-11-03T08:57:19.253Z,101534.66
2022-11-03T08:59:46.866Z,101536.42
2022-11-03T09:02:14.735Z,101542.27
2022-11-03T09:04:42.389Z,101534.79
2022-11-03T09:07:10.005Z,101550.68
2022-11-03T09:12:25.229Z,101549.50
2022-11-03T09:14:52.832Z,101545.35
2022-11-03T09:17:20.487Z,101543.42
2022-11-03T09:19:48.093Z,101546.43
2022-11-03T09:22:15.720Z,101542.77
2022-11-03T09:24:43.595Z,101542.77
2022-11-03T09:27:11.763Z,101531.35
2022-11-03T09:30:06.498Z,101533.38
2022-11-03T09:32:27.189Z,101536.72
2022-11-03T09:34:54.849Z,101543.06
2022-11-03T09:37:24.014Z,101534.63
2022-11-03T09:39:51.647Z,101530.63
2022-11-03T09:42:20.062Z,101533.77
2022-11-03T09:44:50.253Z,101526.77
2022-11-03T09:47:28.134Z,101528.25
2022-11-03T09:49:56.132Z,101533.61
2022-11-03T09:52:25.333Z,101542.54
2022-11-03T09:54:57.864Z,101541.72
2022-11-03T09:57:28.459Z,101539.07
2022-11-03T09:59:56.770Z,101537.34
2022-11-03T10:02:30.924Z,101538.13
2022-11-03T10:05:06.969Z,101535.41
2022-11-03T10:07:37.833Z,101532.56
2022-11-03T10:10:06.192Z,101530.47
2022-11-03T10:12:38.112Z,101532.56
2022-11-03T10:15:06.916Z,101531.42
2022-11-03T10:17:34.779Z,101526.02
2022-11-03T10:20:03.714Z,101518.27
2022-11-03T10:22:31.412Z,101512.55
2022-11-03T10:25:26.715Z,101521.77
2022-11-03T10:28:10.375Z,101522.91
2022-11-03T10:31:12.964Z,101506.24
2022-11-03T10:33:51.413Z,101504.51
2022-11-03T10:36:19.138Z,101493.84
2022-11-03T10:38:47.348Z,101490.41
2022-11-03T10:41:26.763Z,101486.91
2022-11-03T10:44:02.765Z,101479.33
2022-11-03T10:47:00.376Z,101485.21
2022-11-03T10:49:21.103Z,101486.16
2022-11-03T10:51:52.774Z,101481.42
2022-11-03T10:54:24.073Z,101480.30
2022-11-03T10:56:53.418Z,101482.56
2022-11-03T10:59:23.801Z,101481.32
2022-11-03T11:01:51.753Z,101490.84
2022-11-03T11:04:22.012Z,101480.34
2022-11-03T11:06:50.435Z,101474.00
2022-11-03T11:09:29.184Z,101464.48
2022-11-03T11:12:07.936Z,101453.49
2022-11-03T11:14:39.191Z,101441.55
2022-11-03T11:17:07.604Z,101421.68
2022-11-03T11:20:23.232Z,101418.02
2022-11-03T11:22:51.845Z,101414.65
2022-11-03T11:25:20.215Z,101406.34
2022-11-03T11:27:47.756Z,101406.02
2022-11-03T11:30:21.111Z,101416.64
2022-11-03T11:32:59.406Z,101403.10
2022-11-03T11:35:27.336Z,101396.53
2022-11-03T11:37:55.460Z,101393.33
2022-11-03T11:40:25.791Z,101393.91
2022-11-03T11:43:02.473Z,101397.61
2022-11-03T11:46:07.401Z,101384.86
2022-11-03T11:48:35.561Z,101386.27
2022-11-03T11:51:04.867Z,101376.06
2022-11-03T11:53:39.071Z,101376.39
2022-11-03T11:56:10.339Z,101373.80
2022-11-03T11:58:51.364Z,101382.41
2022-11-03T12:01:35.637Z,101382.41
2022-11-03T12:04:08.231Z,101369.20
2022-11-03T12:06:40.876Z,101349.21
2022-11-03T12:09:14.662Z,101336.79
2022-11-03T12:11:48.283Z,101307.09
2022-11-03T12:14:32.459Z,101293.10
2022-11-03T12:17:18.363Z,101299.41
2022-11-03T12:19:48.517Z,101299.64
2022-11-03T12:22:24.943Z,101281.66
2022-11-03T12:25:03.138Z,101278.91
2022-11-03T12:27:30.734Z,101276.33
2022-11-03T12:30:00.600Z,101257.62
2022-11-03T12:32:35.877Z,101242.28
2022-11-03T12:35:09.372Z,101237.94
2022-11-03T12:37:39.240Z,101232.21
2022-11-03T12:40:07.643Z,101222.89
2022-11-03T12:42:36.189Z,101226.75
2022-11-03T12:45:03.999Z,101218.58
2022-11-03T12:47:31.665Z,101199.94
2022-11-03T12:49:59.273Z,101195.69
2022-11-03T12:52:26.939Z,101189.15
2022-11-03T12:54:54.640Z,101182.31
2022-11-03T12:57:22.277Z,101173.13
2022-11-03T12:59:49.969Z,101169.13
2022-11-03T13:02:18.189Z,101171.62
2022-11-03T13:04:45.966Z,101171.03
2022-11-03T13:07:13.607Z,101156.87
2022-11-03T13:09:41.265Z,101145.88
2022-11-03T13:12:32.138Z,101141.83
2022-11-03T13:15:01.708Z,101145.69
2022-11-03T13:17:40.289Z,101138.56
2022-11-03T13:20:15.573Z,101140.12
2022-11-03T13:22:43.267Z,101124.70
2022-11-03T13:25:11.025Z,101126.79
2022-11-03T13:27:38.754Z,101115.31
2022-11-03T13:30:08.662Z,101111.98
2022-11-03T13:32:37.109Z,101102.55
2022-11-03T13:35:09.504Z,101105.44
2022-11-03T13:37:41.102Z,101097.00
2022-11-03T13:40:12.923Z,101084.96
2022-11-03T13:42:51.545Z,101085.42
2022-11-03T13:45:19.192Z,101065.24
2022-11-03T13:50:34.553Z,101045.88
2022-11-03T13:55:50.444Z,101043.04
2022-11-03T14:01:06.250Z,101034.73
2022-11-03T14:06:21.524Z,101029.96
2022-11-03T14:08:49.146Z,101045.40
2022-11-03T14:11:35.302Z,101048.08
2022-11-03T14:14:02.928Z,101044.71
2022-11-03T14:16:30.828Z,101030.98
2022-11-03T14:18:58.524Z,101029.96
2022-11-03T14:21:26.137Z,101031.07
2022-11-03T14:23:53.764Z,101013.88
2022-11-03T14:26:32.822Z,101013.38
2022-11-03T14:29:07.792Z,100999.23
2022-11-03T14:31:35.550Z,100985.69
2022-11-03T14:34:03.354Z,100979.18
2022-11-03T14:36:30.984Z,100967.70
2022-11-03T14:38:58.636Z,100964.04
2022-11-03T14:44:13.185Z,100955.44
2022-11-03T14:46:40.844Z,100956.23
2022-11-03T14:51:37.255Z,100932.71
2022-11-03T14:54:05.032Z,100925.88
2022-11-03T14:56:32.623Z,100913.32
2022-11-03T14:59:00.348Z,100894.06
2022-11-03T15:01:28.199Z,100886.24
2022-11-03T15:03:55.908Z,100899.29
2022-11-03T15:06:23.577Z,100905.54
2022-11-03T15:08:56.197Z,100893.77
2022-11-03T15:11:24.405Z,100890.40
2022-11-03T15:13:52.815Z,100880.52
2022-11-03T15:16:20.593Z,100880.81
2022-11-03T15:18:48.503Z,100888.01
2022-11-03T15:21:16.394Z,100884.09
2022-11-03T15:26:31.769Z,100901.68
2022-11-03T15:28:59.578Z,100913.55
2022-11-03T15:31:27.248Z,100898.34
2022-11-03T15:33:54.926Z,100893.57
2022-11-03T15:36:23.278Z,100888.56
2022-11-03T15:38:50.904Z,100885.10
2022-11-03T15:41:18.663Z,100874.41
2022-11-03T15:43:51.544Z,100862.18
2022-11-03T15:46:20.379Z,100851.23
2022-11-03T15:48:49.774Z,100840.23
2022-11-03T15:51:17.458Z,100836.90
2022-11-03T15:53:45.078Z,100819.21
2022-11-03T15:56:12.815Z,100819.50
2022-11-03T15:58:40.690Z,100820.29
2022-11-03T16:01:08.468Z,100816.37
2022-11-03T16:03:36.147Z,100817.84
2022-11-03T16:06:03.740Z,100791.45
2022-11-03T16:08:31.337Z,100782.55
2022-11-03T16:10:58.971Z,100772.68
2022-11-03T16:13:26.751Z,100760.94
2022-11-03T16:15:55.617Z,100760.16
2022-11-03T16:18:23.312Z,100749.98
2022-11-03T16:20:51.033Z,100739.81
2022-11-03T16:23:18.703Z,100744.23
2022-11-03T16:25:46.326Z,100739.13
2022-11-03T16:28:14.047Z,100724.48
2022-11-03T16:30:41.712Z,100731.51
2022-11-03T16:33:09.800Z,100718.46
2022-11-03T16:35:37.429Z,100709.11
2022-11-03T16:38:05.452Z,100714.54
2022-11-03T16:40:33.366Z,100709.60
2022-11-03T16:43:01.022Z,100716.59
2022-11-03T16:45:33.632Z,100713.95
2022-11-03T16:48:05.672Z,100713.85
2022-11-03T16:50:34.073Z,100709.40
2022-11-03T16:53:01.889Z,100702.70
2022-11-03T16:55:29.678Z,100714.93
2022-11-03T16:57:57.447Z,100721.96
2022-11-03T17:00:25.386Z,100735.98
2022-11-03T17:02:53.345Z,100736.97
2022-11-03T17:05:22.204Z,100729.64
2022-11-03T17:07:53.960Z,100721.17
2022-11-03T17:10:23.065Z,100723.56
2022-11-03T17:12:51.446Z,100726.11
2022-11-03T17:15:19.264Z,100730.27
2022-11-03T17:17:46.937Z,100736.94
2022-11-03T17:20:14.581Z,100734.78
2022-11-03T17:22:42.270Z,100720.95
2022-11-03T17:25:11.865Z,100725.82
2022-11-03T17:27:53.362Z,100721.86
2022-11-03T17:30:23.737Z,100711.17
2022-11-03T17:32:54.321Z,100706.66
2022-11-03T17:35:26.678Z,100707.93
2022-11-03T17:37:54.687Z,100707.44
2022-11-03T17:40:26.074Z,100704.30
2022-11-03T17:42:54.161Z,100696.78
2022-11-03T17:45:24.054Z,100702.21
2022-11-03T17:47:52.230Z,100692.86
2022-11-03T17:50:22.784Z,100699.07
2022-11-03T17:52:52.272Z,100689.20
2022-11-03T17:55:31.470Z,100690.17
2022-11-03T17:58:02.643Z,100707.63
2022-11-03T18:00:30.817Z,100679.02
2022-11-03T18:02:58.716Z,100702.41
2022-11-03T18:05:33.760Z,100710.22
2022-11-03T18:08:06.748Z,100726.57
2022-11-03T18:10:38.814Z,100711.49
2022-11-03T18:13:34.375Z,100705.25
2022-11-03T18:16:22.471Z,100709.40
2022-11-03T18:18:50.046Z,100695.99
2022-11-03T18:21:20.181Z,100692.53
2022-11-03T18:23:48.027Z,100688.41
2022-11-03T18:26:24.385Z,100703.48
2022-11-03T18:28:52.337Z,100681.90
2022-11-03T18:31:24.011Z,100657.41
2022-11-03T18:33:53.023Z,100631.87
2022-11-03T18:36:21.569Z,100590.51
2022-11-03T18:38:49.832Z,100582.23
2022-11-03T18:41:39.784Z,100583.80
2022-11-03T18:44:10.148Z,100577.30
2022-11-03T18:46:37.751Z,100558.36
2022-11-03T18:49:05.344Z,100574.71
2022-11-03T18:51:33.437Z,100564.84
2022-11-03T18:54:01.406Z,100555.98
2022-11-03T18:56:32.795Z,100545.12
2022-11-03T18:59:03.637Z,100535.24
2022-11-03T19:01:31.365Z,100537.59
2022-11-03T19:03:59.209Z,100532.95
2022-11-03T19:06:26.956Z,100523.08
2022-11-03T19:09:00.596Z,100498.36
2022-11-03T19:11:28.528Z,100494.95
2022-11-03T19:13:56.261Z,100495.77
2022-11-03T19:16:25.443Z,100496.52
2022-11-03T19:18:53.526Z,100491.13
2022-11-03T19:21:24.606Z,100500.48
2022-11-03T19:23:58.117Z,100487.73
2022-11-03T19:26:36.528Z,100461.99
2022-11-03T19:29:10.134Z,100472.45
2022-11-03T19:31:42.444Z,100465.43
2022-11-03T19:34:17.411Z,100453.79
2022-11-03T19:36:46.039Z,100449.30
2022-11-03T19:39:22.207Z,100441.82
2022-11-03T19:42:08.574Z,100439.23
2022-11-03T19:44:36.343Z,100451.01
2022-11-03T19:47:04.972Z,100453.63
2022-11-03T19:49:32.777Z,100459.97
2022-11-03T19:52:00.594Z,100469.32
2022-11-03T19:54:28.260Z,100479.45
2022-11-03T19:56:55.904Z,100504.47
2022-11-03T19:59:23.611Z,100505.16
2022-11-03T20:01:51.355Z,100513.98
2022-11-03T20:04:19.139Z,100510.72
2022-11-03T20:06:46.808Z,100521.31
2022-11-03T20:09:20.024Z,100520.92
2022-11-03T20:11:47.783Z,100530.23
2022-11-03T20:14:21.925Z,100544.46
2022-11-03T20:16:49.553Z,100544.37
2022-11-03T20:19:17.223Z,100546.66
2022-11-03T20:21:45.110Z,100556.50
2022-11-03T20:24:17.424Z,100550.77
2022-11-03T20:26:45.077Z,100554.73
2022-11-03T20:29:15.035Z,100561.53
2022-11-03T20:31:44.315Z,100554.05
2022-11-03T20:34:16.460Z,100533.48
2022-11-03T20:36:44.814Z,100534.30
2022-11-03T20:39:17.134Z,100534.09
2022-11-03T20:41:49.296Z,100533.09
2022-11-03T20:44:17.185Z,100534.66
2022-11-03T20:46:45.028Z,100524.22
2022-11-03T20:49:12.808Z,100535.66
2022-11-03T20:51:47.009Z,100552.54
2022-11-03T20:54:14.528Z,100563.69
2022-11-03T20:56:42.582Z,100572.78
2022-11-03T20:59:25.538Z,100587.86
2022-11-03T21:01:53.945Z,100593.09
2022-11-03T21:04:22.221Z,100587.37
2022-11-03T21:06:50.232Z,100577.98
2022-11-03T21:09:19.486Z,100583.21
2022-11-03T21:11:48.770Z,100578.80
2022-11-03T21:14:25.715Z,100606.92
2022-11-03T21:17:11.803Z,100620.91
2022-11-03T21:19:58.323Z,100636.28
2022-11-03T21:25:24.162Z,100678.73
2022-11-03T21:27:52.819Z,100694.63
2022-11-03T21:30:20.715Z,100693.80
2022-11-03T21:32:50.127Z,100689.39
2022-11-03T21:35:21.337Z,100688.90
2022-11-03T21:37:49.220Z,100699.23
2022-11-03T21:40:19.089Z,100700.84
2022-11-03T21:43:05.392Z,100711.49
2022-11-03T21:45:33.357Z,100726.27
2022-11-03T21:48:20.768Z,100729.35
2022-11-03T21:50:48.690Z,100735.23
2022-11-03T21:53:16.388Z,100740.86
2022-11-03T21:55:44.233Z,100741.84
2022-11-03T21:58:11.917Z,100749.66
2022-11-03T22:00:39.536Z,100752.53
2022-11-03T22:03:07.411Z,100753.48
2022-11-03T22:05:35.387Z,100763.81
2022-11-03T22:08:03.122Z,100770.06
2022-11-03T22:10:30.726Z,100777.55
2022-11-03T22:12:58.369Z,100768.95
2022-11-03T22:15:44.574Z,100772.80
2022-11-03T22:18:12.736Z,100756.33
2022-11-03T22:20:59.137Z,100773.46
2022-11-03T22:23:45.727Z,100776.05
2022-11-03T22:26:35.560Z,100779.38
2022-11-03T22:29:21.986Z,100789.23
2022-11-03T22:31:49.668Z,100795.17
2022-11-03T22:34:35.795Z,100795.17
2022-11-03T22:37:03.461Z,100798.80
2022-11-03T22:39:49.602Z,100796.41
2022-11-03T22:42:36.042Z,100800.90
2022-11-03T22:45:22.276Z,100794.65
2022-11-03T22:47:49.948Z,100801.20
2022-11-03T22:50:17.644Z,100792.43
2022-11-03T22:52:45.350Z,100766.70
2022-11-03T22:55:12.958Z,100804.92
2022-11-03T22:57:40.659Z,100803.64
2022-11-03T23:00:08.985Z,100821.14
2022-11-03T23:02:36.650Z,100825.59
2022-11-03T23:05:04.511Z,100820.16
2022-11-03T23:07:35.843Z,100834.74
2022-11-03T23:10:06.500Z,100834.74
2022-11-03T23:12:34.235Z,100835.04
2022-11-03T23:15:20.256Z,100835.33
2022-11-03T23:18:06.396Z,100843.93
2022-11-03T23:20:52.601Z,100829.61
2022-11-03T23:23:38.781Z,100831.99
2022-11-03T23:26:09.539Z,100832.81
2022-11-03T23:28:37.427Z,100827.58
2022-11-03T23:31:05.173Z,100828.37
2022-11-03T23:33:33.154Z,100826.77
2022-11-03T23:36:17.137Z,100815.32
2022-11-03T23:38:45.593Z,100805.97
2022-11-03T23:41:18.708Z,100814.83
2022-11-03T23:43:47.659Z,100796.58
2022-11-03T23:46:36.378Z,100779.41
2022-11-03T23:49:04.584Z,100783.08
2022-11-03T23:51:33.468Z,100783.86
2022-11-03T23:54:02.086Z,100778.63
2022-11-03T23:56:50.245Z,100788.99
2022-11-03T23:59:18.422Z,100785.82
